sensor_id;sensor_type;location;lat;lon;timestamp;pressure;altitude;pressure_sealevel;temperature;humidity
1472;BME280;963;42.644;23.336;2022-12-11T00:02:18;92163.44;;;11.93;88.86
1472;BME280;963;42.644;23.336;2022-12-11T00:04:43;92159.53;;;11.97;89.11
1472;BME280;963;42.644;23.336;2022-12-11T00:07:09;92157.56;;;11.85;90.36
1472;BME280;963;42.644;23.336;2022-12-11T00:09:35;92166.63;;;11.84;90.71
1472;BME280;963;42.644;23.336;2022-12-11T00:12:00;92174.03;;;11.89;90.12
1472;BME280;963;42.644;23.336;2022-12-11T00:14:27;92146.88;;;11.92;90.05
1472;BME280;963;42.644;23.336;2022-12-11T00:16:53;92150.91;;;11.80;91.09
1472;BME280;963;42.644;23.336;2022-12-11T00:19:18;92143.72;;;11.65;92.72
1472;BME280;963;42.644;23.336;2022-12-11T00:21:44;92158.22;;;11.89;90.51
1472;BME280;963;42.644;23.336;2022-12-11T00:24:09;92161.53;;;11.93;90.16
1472;BME280;963;42.644;23.336;2022-12-11T00:26:35;92144.88;;;11.80;90.42
1472;BME280;963;42.644;23.336;2022-12-11T00:29:00;92117.91;;;11.92;90.10
1472;BME280;963;42.644;23.336;2022-12-11T00:31:26;92164.47;;;11.79;90.72
1472;BME280;963;42.644;23.336;2022-12-11T00:33:51;92140.19;;;11.87;90.63
1472;BME280;963;42.644;23.336;2022-12-11T00:36:19;92149.50;;;11.92;90.48
1472;BME280;963;42.644;23.336;2022-12-11T00:38:45;92148.84;;;12.04;89.17
1472;BME280;963;42.644;23.336;2022-12-11T00:41:11;92152.94;;;11.89;90.45
1472;BME280;963;42.644;23.336;2022-12-11T00:43:36;92151.97;;;11.99;88.90
1472;BME280;963;42.644;23.336;2022-12-11T00:46:02;92116.66;;;11.97;89.21
1472;BME280;963;42.644;23.336;2022-12-11T00:48:29;92131.63;;;12.00;88.96
1472;BME280;963;42.644;23.336;2022-12-11T00:50:54;92145.03;;;12.05;88.71
1472;BME280;963;42.644;23.336;2022-12-11T00:53:20;92155.50;;;12.09;88.20
1472;BME280;963;42.644;23.336;2022-12-11T00:55:45;92147.53;;;11.96;88.69
1472;BME280;963;42.644;23.336;2022-12-11T00:58:11;92148.91;;;12.01;88.78
1472;BME280;963;42.644;23.336;2022-12-11T01:00:38;92128.09;;;11.90;89.74
1472;BME280;963;42.644;23.336;2022-12-11T01:03:04;92148.09;;;12.04;88.80
1472;BME280;963;42.644;23.336;2022-12-11T01:05:30;92152.28;;;12.01;88.44
1472;BME280;963;42.644;23.336;2022-12-11T01:07:56;92148.03;;;11.91;89.18
1472;BME280;963;42.644;23.336;2022-12-11T01:10:21;92141.44;;;11.99;88.46
1472;BME280;963;42.644;23.336;2022-12-11T01:13:01;92139.25;;;12.10;87.71
1472;BME280;963;42.644;23.336;2022-12-11T01:15:30;92145.94;;;12.15;87.48
1472;BME280;963;42.644;23.336;2022-12-11T01:17:57;92155.63;;;12.18;87.31
1472;BME280;963;42.644;23.336;2022-12-11T01:20:23;92141.41;;;12.15;87.59
1472;BME280;963;42.644;23.336;2022-12-11T01:22:54;92138.09;;;12.11;87.69
1472;BME280;963;42.644;23.336;2022-12-11T01:25:20;92182.19;;;11.95;88.83
1472;BME280;963;42.644;23.336;2022-12-11T01:27:46;92169.97;;;12.17;88.48
1472;BME280;963;42.644;23.336;2022-12-11T01:30:13;92158.44;;;12.27;88.63
1472;BME280;963;42.644;23.336;2022-12-11T01:32:39;92176.31;;;12.19;90.01
1472;BME280;963;42.644;23.336;2022-12-11T01:35:06;92136.31;;;12.08;91.16
1472;BME280;963;42.644;23.336;2022-12-11T01:37:32;92100.59;;;12.36;88.64
1472;BME280;963;42.644;23.336;2022-12-11T01:39:58;92115.25;;;12.92;82.49
1472;BME280;963;42.644;23.336;2022-12-11T01:42:24;92077.94;;;13.44;78.18
1472;BME280;963;42.644;23.336;2022-12-11T01:47:15;92069.00;;;13.76;77.73
1472;BME280;963;42.644;23.336;2022-12-11T01:49:41;92125.09;;;13.80;76.39
1472;BME280;963;42.644;23.336;2022-12-11T01:52:15;92073.50;;;13.88;75.90
1472;BME280;963;42.644;23.336;2022-12-11T01:54:43;92012.53;;;14.04;73.70
1472;BME280;963;42.644;23.336;2022-12-11T01:57:10;92080.19;;;14.15;74.67
1472;BME280;963;42.644;23.336;2022-12-11T01:59:39;92172.91;;;14.20;73.16
1472;BME280;963;42.644;23.336;2022-12-11T02:02:08;92126.44;;;14.32;68.49
1472;BME280;963;42.644;23.336;2022-12-11T02:04:37;92112.28;;;14.26;68.69
1472;BME280;963;42.644;23.336;2022-12-11T02:07:04;92091.63;;;14.33;67.53
1472;BME280;963;42.644;23.336;2022-12-11T02:09:32;92131.72;;;14.32;67.59
1472;BME280;963;42.644;23.336;2022-12-11T02:17:34;92089.06;;;14.43;69.36
1472;BME280;963;42.644;23.336;2022-12-11T02:20:22;92041.03;;;14.44;69.21
1472;BME280;963;42.644;23.336;2022-12-11T02:28:32;92013.25;;;14.70;73.85
1472;BME280;963;42.644;23.336;2022-12-11T02:34:19;92036.38;;;14.79;73.78
1472;BME280;963;42.644;23.336;2022-12-11T02:36:50;92041.72;;;14.57;74.28
1472;BME280;963;42.644;23.336;2022-12-11T02:39:18;92064.09;;;14.44;74.92
1472;BME280;963;42.644;23.336;2022-12-11T02:41:50;92054.47;;;14.37;75.76
1472;BME280;963;42.644;23.336;2022-12-11T02:44:20;92097.28;;;14.23;74.50
1472;BME280;963;42.644;23.336;2022-12-11T02:46:47;92067.75;;;14.02;76.80
1472;BME280;963;42.644;23.336;2022-12-11T02:49:13;92078.59;;;13.70;78.90
1472;BME280;963;42.644;23.336;2022-12-11T02:51:42;92067.19;;;13.73;80.01
1472;BME280;963;42.644;23.336;2022-12-11T02:54:13;92077.75;;;13.73;76.59
1472;BME280;963;42.644;23.336;2022-12-11T02:56:50;92068.88;;;14.14;71.41
1472;BME280;963;42.644;23.336;2022-12-11T02:59:26;92039.47;;;14.34;69.03
1472;BME280;963;42.644;23.336;2022-12-11T03:01:53;92049.19;;;14.37;70.66
1472;BME280;963;42.644;23.336;2022-12-11T03:04:19;92071.75;;;14.07;71.21
1472;BME280;963;42.644;23.336;2022-12-11T03:06:52;92080.31;;;14.33;68.82
1472;BME280;963;42.644;23.336;2022-12-11T03:09:19;92052.56;;;14.50;68.98
1472;BME280;963;42.644;23.336;2022-12-11T03:11:44;92052.03;;;14.21;71.28
1472;BME280;963;42.644;23.336;2022-12-11T03:14:10;92051.47;;;14.26;71.74
1472;BME280;963;42.644;23.336;2022-12-11T03:16:38;92068.25;;;14.32;71.23
1472;BME280;963;42.644;23.336;2022-12-11T03:22:15;92069.38;;;14.44;70.72
1472;BME280;963;42.644;23.336;2022-12-11T03:24:46;92049.97;;;14.59;70.50
1472;BME280;963;42.644;23.336;2022-12-11T03:27:27;92069.56;;;14.49;70.84
1472;BME280;963;42.644;23.336;2022-12-11T03:29:59;92054.25;;;14.44;70.77
1472;BME280;963;42.644;23.336;2022-12-11T03:32:30;92071.84;;;14.16;71.73
1472;BME280;963;42.644;23.336;2022-12-11T03:35:18;92085.97;;;14.22;72.90
1472;BME280;963;42.644;23.336;2022-12-11T03:37:47;92131.88;;;13.81;74.44
1472;BME280;963;42.644;23.336;2022-12-11T03:40:15;92066.25;;;13.80;73.19
1472;BME280;963;42.644;23.336;2022-12-11T03:42:42;92105.16;;;14.14;71.33
1472;BME280;963;42.644;23.336;2022-12-11T03:45:10;92096.66;;;14.19;70.81
1472;BME280;963;42.644;23.336;2022-12-11T03:47:38;92098.53;;;14.31;70.63
1472;BME280;963;42.644;23.336;2022-12-11T03:50:08;92092.38;;;14.34;70.98
1472;BME280;963;42.644;23.336;2022-12-11T03:52:35;92102.28;;;14.43;71.36
1472;BME280;963;42.644;23.336;2022-12-11T03:55:04;92108.63;;;14.45;70.94
1472;BME280;963;42.644;23.336;2022-12-11T03:57:33;92129.16;;;14.41;69.95
1472;BME280;963;42.644;23.336;2022-12-11T03:59:59;92129.56;;;14.52;69.60
1472;BME280;963;42.644;23.336;2022-12-11T04:02:24;92159.72;;;14.42;68.27
1472;BME280;963;42.644;23.336;2022-12-11T04:04:50;92147.53;;;14.57;68.59
1472;BME280;963;42.644;23.336;2022-12-11T04:07:15;92126.00;;;14.68;68.38
1472;BME280;963;42.644;23.336;2022-12-11T04:09:41;92134.13;;;14.74;68.32
1472;BME280;963;42.644;23.336;2022-12-11T04:12:06;92116.16;;;14.68;67.82
1472;BME280;963;42.644;23.336;2022-12-11T04:14:31;92107.25;;;14.53;68.43
1472;BME280;963;42.644;23.336;2022-12-11T04:17:16;92122.19;;;14.69;68.39
1472;BME280;963;42.644;23.336;2022-12-11T04:20:02;92093.84;;;14.79;67.49
1472;BME280;963;42.644;23.336;2022-12-11T04:22:46;92083.66;;;14.68;65.58
1472;BME280;963;42.644;23.336;2022-12-11T04:25:30;92106.47;;;14.75;65.23
1472;BME280;963;42.644;23.336;2022-12-11T04:27:55;92089.91;;;14.83;65.10
1472;BME280;963;42.644;23.336;2022-12-11T04:30:23;92126.34;;;15.01;64.62
1472;BME280;963;42.644;23.336;2022-12-11T04:32:50;92118.72;;;15.03;65.96
1472;BME280;963;42.644;23.336;2022-12-11T04:35:16;92168.19;;;15.15;61.83
1472;BME280;963;42.644;23.336;2022-12-11T04:37:42;92123.59;;;15.14;61.52
1472;BME280;963;42.644;23.336;2022-12-11T04:40:10;92118.44;;;15.10;61.89
1472;BME280;963;42.644;23.336;2022-12-11T04:42:36;92129.94;;;15.16;62.94
1472;BME280;963;42.644;23.336;2022-12-11T04:45:02;92140.38;;;15.11;65.42
1472;BME280;963;42.644;23.336;2022-12-11T04:47:28;92138.16;;;15.09;64.03
1472;BME280;963;42.644;23.336;2022-12-11T04:49:53;92175.56;;;15.20;61.78
1472;BME280;963;42.644;23.336;2022-12-11T04:52:19;92198.31;;;15.30;61.03
1472;BME280;963;42.644;23.336;2022-12-11T04:54:44;92159.50;;;15.46;57.09
1472;BME280;963;42.644;23.336;2022-12-11T04:57:09;92183.78;;;15.66;56.90
1472;BME280;963;42.644;23.336;2022-12-11T04:59:35;92195.59;;;15.74;56.30
1472;BME280;963;42.644;23.336;2022-12-11T05:02:02;92190.16;;;15.78;56.52
1472;BME280;963;42.644;23.336;2022-12-11T05:04:34;92204.13;;;15.69;59.05
1472;BME280;963;42.644;23.336;2022-12-11T05:07:00;92199.22;;;15.37;59.54
1472;BME280;963;42.644;23.336;2022-12-11T05:09:26;92167.50;;;15.55;59.53
1472;BME280;963;42.644;23.336;2022-12-11T05:11:52;92161.81;;;15.35;60.59
1472;BME280;963;42.644;23.336;2022-12-11T05:14:18;92191.88;;;15.41;59.09
1472;BME280;963;42.644;23.336;2022-12-11T05:16:43;92186.47;;;15.53;58.83
1472;BME280;963;42.644;23.336;2022-12-11T05:19:09;92187.97;;;15.54;58.50
1472;BME280;963;42.644;23.336;2022-12-11T05:21:34;92173.00;;;15.60;58.46
1472;BME280;963;42.644;23.336;2022-12-11T05:24:00;92197.91;;;15.63;58.23
1472;BME280;963;42.644;23.336;2022-12-11T05:26:25;92202.03;;;15.64;58.30
1472;BME280;963;42.644;23.336;2022-12-11T05:28:52;92190.84;;;15.38;59.53
1472;BME280;963;42.644;23.336;2022-12-11T05:31:20;92220.50;;;15.55;58.86
1472;BME280;963;42.644;23.336;2022-12-11T05:33:47;92227.06;;;15.63;58.40
1472;BME280;963;42.644;23.336;2022-12-11T05:36:29;92200.56;;;15.63;58.73
1472;BME280;963;42.644;23.336;2022-12-11T05:38:55;92183.66;;;15.70;58.76
1472;BME280;963;42.644;23.336;2022-12-11T05:41:22;92156.25;;;15.63;58.49
1472;BME280;963;42.644;23.336;2022-12-11T05:43:48;92161.97;;;15.62;58.02
1472;BME280;963;42.644;23.336;2022-12-11T05:46:20;92151.69;;;15.73;57.77
1472;BME280;963;42.644;23.336;2022-12-11T05:48:49;92177.91;;;15.71;57.52
1472;BME280;963;42.644;23.336;2022-12-11T05:51:16;92170.56;;;15.75;57.21
1472;BME280;963;42.644;23.336;2022-12-11T05:53:43;92157.00;;;15.73;57.86
1472;BME280;963;42.644;23.336;2022-12-11T05:56:18;92159.38;;;15.80;58.02
1472;BME280;963;42.644;23.336;2022-12-11T05:58:44;92128.88;;;15.76;58.77
1472;BME280;963;42.644;23.336;2022-12-11T06:01:16;92134.03;;;15.79;57.95
1472;BME280;963;42.644;23.336;2022-12-11T06:03:42;92145.66;;;15.73;58.02
1472;BME280;963;42.644;23.336;2022-12-11T06:06:07;92126.22;;;15.76;58.04
1472;BME280;963;42.644;23.336;2022-12-11T06:08:33;92198.56;;;15.54;58.47
1472;BME280;963;42.644;23.336;2022-12-11T06:10:59;92145.44;;;15.58;58.72
1472;BME280;963;42.644;23.336;2022-12-11T06:13:25;92124.25;;;15.58;59.06
1472;BME280;963;42.644;23.336;2022-12-11T06:15:50;92132.75;;;15.53;58.87
1472;BME280;963;42.644;23.336;2022-12-11T06:18:16;92143.72;;;15.64;58.47
1472;BME280;963;42.644;23.336;2022-12-11T06:20:41;92161.72;;;15.69;57.85
1472;BME280;963;42.644;23.336;2022-12-11T06:23:07;92152.56;;;15.70;57.87
1472;BME280;963;42.644;23.336;2022-12-11T06:25:32;92147.66;;;15.59;58.86
1472;BME280;963;42.644;23.336;2022-12-11T06:27:58;92178.22;;;15.73;57.50
1472;BME280;963;42.644;23.336;2022-12-11T06:30:23;92221.63;;;15.67;57.58
1472;BME280;963;42.644;23.336;2022-12-11T06:32:49;92174.72;;;15.85;55.95
1472;BME280;963;42.644;23.336;2022-12-11T06:35:14;92198.00;;;15.90;55.78
1472;BME280;963;42.644;23.336;2022-12-11T06:37:39;92184.41;;;15.79;56.75
1472;BME280;963;42.644;23.336;2022-12-11T06:40:07;92170.28;;;15.82;56.84
1472;BME280;963;42.644;23.336;2022-12-11T06:42:33;92165.88;;;15.88;57.25
1472;BME280;963;42.644;23.336;2022-12-11T06:44:59;92143.38;;;16.02;56.50
1472;BME280;963;42.644;23.336;2022-12-11T06:47:25;92165.63;;;16.05;56.32
1472;BME280;963;42.644;23.336;2022-12-11T06:49:51;92186.41;;;16.06;56.94
1472;BME280;963;42.644;23.336;2022-12-11T06:52:18;92185.81;;;16.02;55.72
1472;BME280;963;42.644;23.336;2022-12-11T06:54:43;92214.25;;;16.02;56.28
1472;BME280;963;42.644;23.336;2022-12-11T06:57:09;92207.75;;;16.03;56.63
1472;BME280;963;42.644;23.336;2022-12-11T06:59:34;92244.38;;;15.86;56.48
1472;BME280;963;42.644;23.336;2022-12-11T07:01:59;92257.56;;;15.99;56.78
1472;BME280;963;42.644;23.336;2022-12-11T07:04:25;92211.59;;;16.02;56.75
1472;BME280;963;42.644;23.336;2022-12-11T07:06:52;92221.16;;;15.99;57.11
1472;BME280;963;42.644;23.336;2022-12-11T07:09:18;92210.44;;;16.12;57.13
1472;BME280;963;42.644;23.336;2022-12-11T07:11:43;92228.44;;;16.17;57.09
1472;BME280;963;42.644;23.336;2022-12-11T07:14:09;92219.31;;;16.27;56.54
1472;BME280;963;42.644;23.336;2022-12-11T07:16:34;92207.22;;;16.26;56.88
1472;BME280;963;42.644;23.336;2022-12-11T07:19:00;92226.88;;;16.38;56.69
1472;BME280;963;42.644;23.336;2022-12-11T07:21:25;92231.72;;;16.39;56.79
1472;BME280;963;42.644;23.336;2022-12-11T07:23:50;92219.94;;;16.40;57.23
1472;BME280;963;42.644;23.336;2022-12-11T07:26:19;92219.63;;;16.38;57.66
1472;BME280;963;42.644;23.336;2022-12-11T07:28:45;92228.50;;;16.44;58.07
1472;BME280;963;42.644;23.336;2022-12-11T07:31:13;92227.03;;;16.62;59.01
1472;BME280;963;42.644;23.336;2022-12-11T07:33:39;92248.25;;;16.52;57.26
1472;BME280;963;42.644;23.336;2022-12-11T07:36:06;92263.75;;;16.63;57.15
1472;BME280;963;42.644;23.336;2022-12-11T07:38:32;92264.38;;;16.18;57.42
1472;BME280;963;42.644;23.336;2022-12-11T07:41:06;92269.56;;;16.31;56.60
1472;BME280;963;42.644;23.336;2022-12-11T07:43:34;92247.66;;;16.39;57.38
1472;BME280;963;42.644;23.336;2022-12-11T07:46:02;92216.06;;;16.32;56.79
1472;BME280;963;42.644;23.336;2022-12-11T07:48:28;92244.81;;;16.34;57.12
1472;BME280;963;42.644;23.336;2022-12-11T07:50:53;92288.16;;;16.31;56.68
1472;BME280;963;42.644;23.336;2022-12-11T07:53:19;92285.84;;;16.51;56.92
1472;BME280;963;42.644;23.336;2022-12-11T07:55:44;92279.44;;;16.21;57.21
1472;BME280;963;42.644;23.336;2022-12-11T07:58:09;92256.16;;;16.34;57.16
1472;BME280;963;42.644;23.336;2022-12-11T08:00:35;92263.72;;;16.45;56.68
1472;BME280;963;42.644;23.336;2022-12-11T08:03:00;92236.41;;;16.35;56.46
1472;BME280;963;42.644;23.336;2022-12-11T08:05:25;92223.59;;;16.34;57.28
1472;BME280;963;42.644;23.336;2022-12-11T08:07:51;92279.63;;;15.95;58.15
1472;BME280;963;42.644;23.336;2022-12-11T08:10:16;92292.25;;;16.22;57.70
1472;BME280;963;42.644;23.336;2022-12-11T08:12:42;92270.59;;;16.33;57.35
1472;BME280;963;42.644;23.336;2022-12-11T08:15:08;92269.81;;;16.14;58.30
1472;BME280;963;42.644;23.336;2022-12-11T08:17:33;92288.00;;;16.34;58.17
1472;BME280;963;42.644;23.336;2022-12-11T08:19:59;92293.94;;;16.38;57.78
1472;BME280;963;42.644;23.336;2022-12-11T08:22:24;92274.00;;;16.34;57.72
1472;BME280;963;42.644;23.336;2022-12-11T08:24:50;92261.84;;;16.05;58.57
1472;BME280;963;42.644;23.336;2022-12-11T08:27:15;92300.59;;;16.03;59.04
1472;BME280;963;42.644;23.336;2022-12-11T08:29:41;92282.09;;;16.30;58.87
1472;BME280;963;42.644;23.336;2022-12-11T08:32:06;92275.66;;;16.40;58.79
1472;BME280;963;42.644;23.336;2022-12-11T08:34:32;92283.78;;;16.46;58.05
1472;BME280;963;42.644;23.336;2022-12-11T08:36:57;92264.19;;;16.52;58.67
1472;BME280;963;42.644;23.336;2022-12-11T08:39:22;92260.50;;;16.50;58.38
1472;BME280;963;42.644;23.336;2022-12-11T08:41:49;92274.59;;;16.29;58.81
1472;BME280;963;42.644;23.336;2022-12-11T08:44:15;92262.47;;;16.18;58.80
1472;BME280;963;42.644;23.336;2022-12-11T08:46:40;92262.56;;;16.46;58.34
1472;BME280;963;42.644;23.336;2022-12-11T08:49:05;92264.63;;;16.51;58.43
1472;BME280;963;42.644;23.336;2022-12-11T08:51:31;92258.00;;;16.65;58.45
1472;BME280;963;42.644;23.336;2022-12-11T08:53:58;92264.63;;;16.60;58.08
1472;BME280;963;42.644;23.336;2022-12-11T08:56:24;92264.75;;;16.47;58.31
1472;BME280;963;42.644;23.336;2022-12-11T08:58:51;92268.16;;;16.48;57.52
1472;BME280;963;42.644;23.336;2022-12-11T09:01:22;92277.75;;;16.45;57.86
1472;BME280;963;42.644;23.336;2022-12-11T09:03:49;92277.44;;;16.43;58.32
1472;BME280;963;42.644;23.336;2022-12-11T09:06:18;92270.34;;;16.40;58.91
1472;BME280;963;42.644;23.336;2022-12-11T09:08:45;92274.13;;;16.21;59.83
1472;BME280;963;42.644;23.336;2022-12-11T09:11:13;92277.34;;;16.16;60.84
1472;BME280;963;42.644;23.336;2022-12-11T09:13:39;92264.97;;;16.13;58.28
1472;BME280;963;42.644;23.336;2022-12-11T09:16:07;92257.59;;;16.17;58.58
1472;BME280;963;42.644;23.336;2022-12-11T09:18:34;92268.25;;;16.35;58.98
1472;BME280;963;42.644;23.336;2022-12-11T09:21:01;92261.97;;;16.51;58.71
1472;BME280;963;42.644;23.336;2022-12-11T09:23:27;92244.72;;;16.55;56.44
1472;BME280;963;42.644;23.336;2022-12-11T09:25:53;92253.56;;;16.52;56.30
1472;BME280;963;42.644;23.336;2022-12-11T09:28:18;92256.81;;;16.56;56.94
1472;BME280;963;42.644;23.336;2022-12-11T09:30:44;92254.94;;;16.66;56.89
1472;BME280;963;42.644;23.336;2022-12-11T09:33:09;92268.00;;;16.51;56.95
1472;BME280;963;42.644;23.336;2022-12-11T09:35:35;92261.69;;;16.58;56.30
1472;BME280;963;42.644;23.336;2022-12-11T09:38:01;92254.31;;;16.53;57.52
1472;BME280;963;42.644;23.336;2022-12-11T09:40:27;92250.22;;;16.70;57.20
1472;BME280;963;42.644;23.336;2022-12-11T09:43:21;92261.31;;;16.78;57.05
1472;BME280;963;42.644;23.336;2022-12-11T09:45:54;92246.69;;;16.82;55.66
1472;BME280;963;42.644;23.336;2022-12-11T09:48:23;92257.91;;;16.77;56.52
1472;BME280;963;42.644;23.336;2022-12-11T09:50:52;92255.47;;;16.52;57.95
1472;BME280;963;42.644;23.336;2022-12-11T09:53:29;92242.97;;;16.62;57.80
1472;BME280;963;42.644;23.336;2022-12-11T10:01:54;92258.06;;;16.24;58.64
1472;BME280;963;42.644;23.336;2022-12-11T10:04:54;92229.38;;;16.41;58.54
1472;BME280;963;42.644;23.336;2022-12-11T10:07:31;92241.78;;;16.53;55.84
1472;BME280;963;42.644;23.336;2022-12-11T10:18:11;92233.22;;;16.49;57.85
1472;BME280;963;42.644;23.336;2022-12-11T10:20:39;92240.59;;;16.64;58.87
1472;BME280;963;42.644;23.336;2022-12-11T10:23:08;92232.53;;;16.76;59.05
1472;BME280;963;42.644;23.336;2022-12-11T10:25:43;92240.34;;;16.89;60.21
1472;BME280;963;42.644;23.336;2022-12-11T10:28:16;92236.22;;;16.79;58.76
1472;BME280;963;42.644;23.336;2022-12-11T10:31:41;92232.84;;;16.87;58.56
1472;BME280;963;42.644;23.336;2022-12-11T10:36:18;92248.88;;;16.66;59.34
1472;BME280;963;42.644;23.336;2022-12-11T10:38:45;92232.59;;;16.36;60.97
1472;BME280;963;42.644;23.336;2022-12-11T10:41:18;92233.25;;;16.68;61.41
1472;BME280;963;42.644;23.336;2022-12-11T10:43:47;92226.59;;;16.63;59.87
1472;BME280;963;42.644;23.336;2022-12-11T10:46:16;92209.22;;;16.90;59.88
1472;BME280;963;42.644;23.336;2022-12-11T10:51:11;92194.22;;;17.56;61.61
1472;BME280;963;42.644;23.336;2022-12-11T10:53:39;92195.75;;;17.90;60.24
1472;BME280;963;42.644;23.336;2022-12-11T10:56:05;92206.59;;;18.34;58.39
1472;BME280;963;42.644;23.336;2022-12-11T10:58:32;92215.22;;;18.77;57.13
1472;BME280;963;42.644;23.336;2022-12-11T11:03:26;92203.84;;;19.59;53.75
1472;BME280;963;42.644;23.336;2022-12-11T11:06:03;92197.69;;;19.39;54.37
1472;BME280;963;42.644;23.336;2022-12-11T11:08:38;92188.91;;;19.09;52.19
1472;BME280;963;42.644;23.336;2022-12-11T11:11:04;92194.16;;;19.03;52.75
1472;BME280;963;42.644;23.336;2022-12-11T11:13:30;92193.41;;;19.02;52.16
1472;BME280;963;42.644;23.336;2022-12-11T11:16:00;92189.84;;;19.05;52.94
1472;BME280;963;42.644;23.336;2022-12-11T11:18:27;92199.84;;;19.11;53.43
1472;BME280;963;42.644;23.336;2022-12-11T11:20:54;92187.72;;;19.10;52.28
1472;BME280;963;42.644;23.336;2022-12-11T11:23:20;92192.22;;;19.03;51.72
1472;BME280;963;42.644;23.336;2022-12-11T11:25:53;92214.53;;;18.43;53.56
1472;BME280;963;42.644;23.336;2022-12-11T11:28:26;92203.50;;;18.03;53.32
1472;BME280;963;42.644;23.336;2022-12-11T11:33:21;92181.50;;;18.02;56.40
1472;BME280;963;42.644;23.336;2022-12-11T11:35:53;92194.97;;;17.99;57.41
1472;BME280;963;42.644;23.336;2022-12-11T11:38:22;92200.44;;;17.53;58.60
1472;BME280;963;42.644;23.336;2022-12-11T11:41:19;92199.81;;;17.67;58.98
1472;BME280;963;42.644;23.336;2022-12-11T11:43:55;92200.97;;;17.66;57.43
1472;BME280;963;42.644;23.336;2022-12-11T11:46:29;92193.00;;;17.66;58.25
1472;BME280;963;42.644;23.336;2022-12-11T11:49:16;92185.81;;;17.48;59.10
1472;BME280;963;42.644;23.336;2022-12-11T11:51:56;92188.63;;;17.45;59.57
1472;BME280;963;42.644;23.336;2022-12-11T12:00:23;92174.13;;;17.46;59.31
1472;BME280;963;42.644;23.336;2022-12-11T12:02:52;92167.06;;;17.43;58.81
1472;BME280;963;42.644;23.336;2022-12-11T12:05:28;92170.63;;;17.40;60.08
1472;BME280;963;42.644;23.336;2022-12-11T12:11:04;92169.81;;;16.97;60.72
1472;BME280;963;42.644;23.336;2022-12-11T12:16:56;92154.59;;;17.07;60.15
1472;BME280;963;42.644;23.336;2022-12-11T12:21:54;92173.66;;;17.14;60.28
1472;BME280;963;42.644;23.336;2022-12-11T12:29:57;92153.19;;;16.78;63.19
1472;BME280;963;42.644;23.336;2022-12-11T12:33:28;92163.94;;;16.84;63.75
1472;BME280;963;42.644;23.336;2022-12-11T12:35:36;92157.13;;;16.65;62.26
1472;BME280;963;42.644;23.336;2022-12-11T12:38:29;92176.94;;;16.73;60.86
1472;BME280;963;42.644;23.336;2022-12-11T12:46:36;92180.47;;;15.93;65.97
1472;BME280;963;42.644;23.336;2022-12-11T12:48:36;92197.50;;;15.52;66.22
1472;BME280;963;42.644;23.336;2022-12-11T12:51:02;92205.53;;;15.08;66.47
1472;BME280;963;42.644;23.336;2022-12-11T12:53:30;92207.00;;;15.09;64.81
1472;BME280;963;42.644;23.336;2022-12-11T12:55:58;92221.81;;;14.85;65.16
1472;BME280;963;42.644;23.336;2022-12-11T13:01:25;92259.00;;;14.08;65.26
1472;BME280;963;42.644;23.336;2022-12-11T13:04:04;92272.19;;;13.45;67.40
1472;BME280;963;42.644;23.336;2022-12-11T13:06:38;92264.09;;;13.23;68.23
1472;BME280;963;42.644;23.336;2022-12-11T13:09:18;92279.75;;;13.01;68.09
1472;BME280;963;42.644;23.336;2022-12-11T13:11:45;92289.13;;;12.73;68.73
1472;BME280;963;42.644;23.336;2022-12-11T13:16:44;92309.25;;;12.35;69.28
1472;BME280;963;42.644;23.336;2022-12-11T13:24:26;92298.81;;;11.79;70.36
1472;BME280;963;42.644;23.336;2022-12-11T13:26:53;92324.34;;;11.62;70.55
1472;BME280;963;42.644;23.336;2022-12-11T13:29:37;92336.97;;;11.31;71.63
1472;BME280;963;42.644;23.336;2022-12-11T13:34:36;92347.59;;;11.04;72.09
1472;BME280;963;42.644;23.336;2022-12-11T13:37:02;92346.91;;;10.80;71.37
1472;BME280;963;42.644;23.336;2022-12-11T13:39:31;92354.06;;;10.76;71.66
1472;BME280;963;42.644;23.336;2022-12-11T13:42:02;92366.19;;;10.70;71.82
1472;BME280;963;42.644;23.336;2022-12-11T13:44:30;92365.19;;;10.64;71.79
1472;BME280;963;42.644;23.336;2022-12-11T13:46:59;92357.47;;;10.26;72.98
1472;BME280;963;42.644;23.336;2022-12-11T13:49:34;92365.19;;;10.10;73.28
1472;BME280;963;42.644;23.336;2022-12-11T13:52:00;92370.91;;;10.05;73.46
1472;BME280;963;42.644;23.336;2022-12-11T13:54:30;92397.38;;;9.87;73.78
1472;BME280;963;42.644;23.336;2022-12-11T13:57:21;92380.03;;;9.63;74.11
1472;BME280;963;42.644;23.336;2022-12-11T13:59:49;92396.53;;;9.63;73.34
1472;BME280;963;42.644;23.336;2022-12-11T14:04:47;92376.13;;;9.44;73.82
1472;BME280;963;42.644;23.336;2022-12-11T14:07:15;92406.84;;;9.47;73.25
1472;BME280;963;42.644;23.336;2022-12-11T14:09:44;92407.63;;;9.06;74.21
1472;BME280;963;42.644;23.336;2022-12-11T14:12:19;92404.59;;;9.08;74.67
1472;BME280;963;42.644;23.336;2022-12-11T14:14:54;92432.41;;;8.98;74.82
1472;BME280;963;42.644;23.336;2022-12-11T14:17:24;92432.94;;;8.79;74.65
1472;BME280;963;42.644;23.336;2022-12-11T14:19:51;92432.53;;;8.81;74.94
1472;BME280;963;42.644;23.336;2022-12-11T14:22:20;92442.81;;;8.61;74.43
1472;BME280;963;42.644;23.336;2022-12-11T14:25:00;92451.47;;;8.51;74.82
1472;BME280;963;42.644;23.336;2022-12-11T14:27:28;92447.06;;;8.40;75.24
1472;BME280;963;42.644;23.336;2022-12-11T14:29:54;92459.03;;;8.38;75.49
1472;BME280;963;42.644;23.336;2022-12-11T14:32:34;92470.72;;;8.15;75.73
1472;BME280;963;42.644;23.336;2022-12-11T14:35:03;92474.03;;;8.30;75.99
1472;BME280;963;42.644;23.336;2022-12-11T14:37:30;92480.00;;;8.31;75.50
1472;BME280;963;42.644;23.336;2022-12-11T14:42:28;92471.41;;;8.34;75.85
1472;BME280;963;42.644;23.336;2022-12-11T14:44:59;92489.78;;;8.23;75.39
1472;BME280;963;42.644;23.336;2022-12-11T14:47:29;92483.06;;;8.22;75.32
1472;BME280;963;42.644;23.336;2022-12-11T14:52:34;92504.41;;;8.13;75.81
1472;BME280;963;42.644;23.336;2022-12-11T14:55:08;92507.00;;;8.17;76.02
1472;BME280;963;42.644;23.336;2022-12-11T14:57:39;92491.28;;;8.17;76.04
1472;BME280;963;42.644;23.336;2022-12-11T15:00:07;92502.53;;;8.10;75.89
1472;BME280;963;42.644;23.336;2022-12-11T15:02:35;92503.25;;;8.25;77.24